Time;durP1;ratioP1;P1;durP2;ratioP2;P2;SDS_P1;SDS_P2;PMS_P1;PMS_P2;Temp;Humidity;BMP_temperature;BMP_pressure;BME280_temperature;BME280_humidity;BME280_pressure;Samples;Min_cycle;Max_cycle;Signal;HPM_P1;HPM_P2
2023/05/29 00:05:06;;;;;;;16.50;7.60;;;;;;;9.17;85.19;99235.44;274256;1256;22210;-82
2023/05/29 00:11:08;;;;;;;11.20;7.00;;;;;;;9.08;85.55;99233.86;273038;1267;22570;-82
2023/05/29 00:17:15;;;;;;;17.20;8.10;;;;;;;9.01;86.05;99233.25;272062;1253;23964;-83
2023/05/29 00:24:35;;;;;;;12.10;7.00;;;;;;;8.95;86.19;99232.87;273106;1262;22388;-82
2023/05/29 00:30:36;;;;;;;11.90;7.20;;;;;;;8.85;86.71;99228.60;273287;1259;22336;-83
2023/05/29 00:36:38;;;;;;;15.60;7.30;;;;;;;8.79;86.80;99229.25;273361;1270;22400;-83
2023/05/29 00:42:39;;;;;;;11.50;7.00;;;;;;;8.75;87.58;99229.48;273389;1258;22311;-83
2023/05/29 00:48:46;;;;;;;11.10;7.00;;;;;;;8.74;87.98;99227.98;273381;1270;22876;-83
2023/05/29 00:55:08;;;;;;;14.70;7.90;;;;;;;8.70;87.69;99228.59;271526;1266;22520;-83
2023/05/29 01:01:11;;;;;;;11.40;6.90;;;;;;;8.62;87.87;99221.55;271517;1266;22531;-83
2023/05/29 01:07:13;;;;;;;16.00;6.80;;;;;;;8.53;88.19;99216.97;270858;1266;22562;-83
2023/05/29 01:13:53;;;;;;;10.00;6.50;;;;;;;8.44;88.61;99213.81;273772;1266;22306;-83
2023/05/29 01:20:35;;;;;;;13.30;6.10;;;;;;;8.37;88.79;99220.42;274209;1267;22300;-83
2023/05/29 01:27:21;;;;;;;10.60;5.50;;;;;;;8.34;89.47;99221.67;274211;1267;23373;-83
2023/05/29 01:33:23;;;;;;;13.30;6.90;;;;;;;8.35;89.52;99223.98;273902;1266;22416;-83
2023/05/29 01:39:26;;;;;;;14.80;6.80;;;;;;;8.31;89.73;99219.58;271166;1262;22553;-83
2023/05/29 01:45:27;;;;;;;14.60;7.20;;;;;;;8.21;89.43;99216.52;272173;1266;22541;-83
2023/05/29 01:51:29;;;;;;;12.00;6.50;;;;;;;8.09;89.53;99208.66;271501;1266;22547;-83
2023/05/29 01:57:30;;;;;;;12.40;6.50;;;;;;;8.01;89.74;99207.55;272196;1256;22435;-83
2023/05/29 02:03:31;;;;;;;8.90;5.90;;;;;;;7.96;90.38;99208.49;271616;1266;22999;-82
2023/05/29 02:09:35;;;;;;;11.70;6.40;;;;;;;7.87;90.38;99205.63;270860;1266;22594;-84
2023/05/29 02:15:36;;;;;;;11.10;6.40;;;;;;;7.81;90.56;99204.54;270589;1266;22429;-84
2023/05/29 02:21:40;;;;;;;10.60;6.40;;;;;;;7.75;90.98;99206.33;274120;1267;22364;-84
2023/05/29 02:27:43;;;;;;;8.70;5.10;;;;;;;7.76;91.62;99203.55;272860;1266;22612;-83
2023/05/29 02:33:44;;;;;;;11.20;6.60;;;;;;;7.77;91.68;99200.16;272130;1257;22374;-82
2023/05/29 02:39:45;;;;;;;12.80;5.50;;;;;;;7.73;91.83;99195.94;273453;1259;22403;-83
2023/05/29 02:45:46;;;;;;;11.80;6.40;;;;;;;7.66;91.91;99197.39;272864;1266;22543;-83
2023/05/29 02:51:47;;;;;;;10.20;6.30;;;;;;;7.59;92.02;99198.30;272458;1269;22558;-82
2023/05/29 02:58:29;;;;;;;14.30;7.10;;;;;;;7.54;92.23;99199.41;272602;1266;22141;-83
2023/05/29 03:04:34;;;;;;;13.90;7.70;;;;;;;7.51;92.36;99192.48;271991;1266;23420;-82
2023/05/29 03:10:36;;;;;;;13.20;6.90;;;;;;;7.49;92.55;99193.20;270966;1256;23433;-82
2023/05/29 03:16:38;;;;;;;12.50;6.80;;;;;;;7.50;92.82;99188.95;272053;1263;22584;-83
2023/05/29 03:23:32;;;;;;;13.10;7.10;;;;;;;7.49;93.07;99191.51;273719;1266;23736;-83
2023/05/29 03:29:33;;;;;;;8.40;5.50;;;;;;;7.53;93.43;99196.04;270735;1266;25430;-84
2023/05/29 03:36:02;;;;;;;10.30;6.00;;;;;;;7.54;93.78;99196.20;274172;1263;22207;-84
2023/05/29 03:42:04;;;;;;;11.60;6.40;;;;;;;7.53;94.25;99194.86;272462;1267;24163;-84
2023/05/29 03:48:09;;;;;;;14.10;6.20;;;;;;;7.63;94.78;99199.09;273855;1269;22241;-84
2023/05/29 03:54:55;;;;;;;10.10;5.70;;;;;;;7.76;95.15;99205.52;274233;1267;22327;-84
2023/05/29 04:01:19;;;;;;;9.60;5.90;;;;;;;7.90;95.59;99205.94;274089;1267;22095;-84
2023/05/29 04:07:21;;;;;;;11.50;7.00;;;;;;;8.05;95.66;99206.06;273284;1266;22316;-84
2023/05/29 04:14:09;;;;;;;10.00;6.30;;;;;;;8.17;95.85;99203.56;273897;1257;22584;-83
2023/05/29 04:20:10;;;;;;;15.20;7.20;;;;;;;8.32;96.28;99203.16;271192;1266;22310;-85
2023/05/29 04:27:04;;;;;;;11.50;6.60;;;;;;;8.43;96.66;99207.94;272016;1266;22147;-84
2023/05/29 04:33:06;;;;;;;12.10;7.00;;;;;;;8.58;97.03;99211.64;273316;1266;22349;-85
2023/05/29 04:39:51;;;;;;;13.80;6.90;;;;;;;8.74;97.42;99209.80;271421;1267;22602;-83
2023/05/29 04:46:15;;;;;;;13.50;7.50;;;;;;;9.00;97.39;99207.23;270610;1266;22534;-81
2023/05/29 04:52:16;;;;;;;10.90;6.00;;;;;;;9.24;97.67;99212.08;271216;1267;22541;-82
2023/05/29 04:58:21;;;;;;;13.80;6.80;;;;;;;9.44;97.64;99215.61;272359;1267;23107;-84
2023/05/29 05:04:23;;;;;;;10.80;7.50;;;;;;;9.70;97.68;99220.14;274302;1263;22168;-80
2023/05/29 05:10:24;;;;;;;12.50;8.50;;;;;;;9.96;97.53;99217.23;274107;1267;22384;-81
2023/05/29 05:16:28;;;;;;;18.40;10.20;;;;;;;10.20;97.37;99212.82;272169;1251;22598;-86
2023/05/29 05:22:30;;;;;;;15.00;8.60;;;;;;;10.44;97.42;99209.84;270397;1263;22511;-82
2023/05/29 05:28:31;;;;;;;13.00;8.00;;;;;;;10.72;96.87;99209.55;270757;1257;22544;-84
2023/05/29 05:34:33;;;;;;;17.90;8.70;;;;;;;11.02;96.49;99206.73;270990;1269;23676;-82
2023/05/29 05:40:35;;;;;;;13.40;8.10;;;;;;;11.32;96.14;99209.36;272734;1257;23171;-83
2023/05/29 05:46:45;;;;;;;13.70;7.40;;;;;;;11.58;95.64;99210.77;274074;1257;23038;-83
2023/05/29 05:52:46;;;;;;;15.00;7.90;;;;;;;11.86;95.26;99214.65;274113;1257;22340;-84
2023/05/29 05:58:49;;;;;;;15.40;7.70;;;;;;;12.13;94.53;99224.63;271727;1267;23361;-82
2023/05/29 06:04:53;;;;;;;13.80;7.50;;;;;;;12.39;93.69;99226.80;273060;1266;22547;-82
2023/05/29 06:10:54;;;;;;;12.80;6.40;;;;;;;12.66;93.23;99221.02;271704;1266;22407;-82
2023/05/29 06:16:56;;;;;;;9.60;6.00;;;;;;;12.94;92.78;99226.52;272913;1267;22554;-82
2023/05/29 06:22:57;;;;;;;9.10;5.60;;;;;;;13.26;92.43;99228.98;273849;1267;22468;-82
2023/05/29 06:28:58;;;;;;;12.30;5.30;;;;;;;13.55;91.95;99237.09;274066;1270;22394;-83
2023/05/29 06:34:59;;;;;;;9.30;4.60;;;;;;;13.82;91.14;99241.33;274125;1267;22503;-81
2023/05/29 06:41:00;;;;;;;7.60;4.60;;;;;;;14.08;90.27;99243.17;273860;1267;22514;-82
2023/05/29 06:47:01;;;;;;;7.10;4.40;;;;;;;14.38;89.44;99247.94;273939;1254;23558;-82
2023/05/29 06:53:02;;;;;;;14.50;5.00;;;;;;;14.63;88.33;99258.16;274104;1264;23732;-82
2023/05/29 06:59:17;;;;;;;8.90;4.90;;;;;;;14.92;87.66;99265.27;274219;1266;22541;-84
2023/05/29 07:05:18;;;;;;;8.50;5.30;;;;;;;15.27;86.99;99263.30;274077;1266;22244;-83
2023/05/29 07:11:19;;;;;;;12.10;5.20;;;;;;;15.58;86.22;99263.75;274213;1257;22203;-84
2023/05/29 07:17:27;;;;;;;11.20;4.60;;;;;;;15.91;85.46;99266.09;274161;1257;22188;-83
2023/05/29 07:23:39;;;;;;;9.30;4.20;;;;;;;16.23;84.71;99272.81;274143;1257;22381;-84
2023/05/29 07:29:41;;;;;;;14.10;4.90;;;;;;;16.57;83.65;99273.21;274060;1261;22336;-84
2023/05/29 07:35:43;;;;;;;11.10;4.30;;;;;;;16.88;82.51;99274.35;272466;1255;27693;-84
2023/05/29 07:41:44;;;;;;;9.30;5.00;;;;;;;17.14;82.21;99280.00;271347;1267;23876;-83
2023/05/29 07:47:46;;;;;;;10.70;4.60;;;;;;;17.34;81.52;99282.16;271088;1257;25066;-84
2023/05/29 07:53:49;;;;;;;12.00;5.30;;;;;;;17.31;80.84;99283.77;271032;1266;22558;-83
2023/05/29 07:59:50;;;;;;;9.70;5.20;;;;;;;17.41;80.41;99285.17;271603;1266;22998;-84
2023/05/29 08:05:52;;;;;;;13.40;5.00;;;;;;;17.63;80.07;99282.87;274134;1253;23152;-83
2023/05/29 08:11:55;;;;;;;11.30;5.00;;;;;;;17.91;79.31;99280.91;273498;1267;23126;-84
2023/05/29 08:17:56;;;;;;;14.50;5.50;;;;;;;18.20;78.34;99282.07;273461;1257;22216;-83
2023/05/29 08:23:57;;;;;;;12.00;5.30;;;;;;;18.47;77.31;99279.52;274182;1257;22492;-83
2023/05/29 08:29:58;;;;;;;9.70;5.00;;;;;;;18.82;76.19;99276.64;274077;1254;22459;-84
2023/05/29 08:36:00;;;;;;;10.20;4.80;;;;;;;19.13;74.92;99272.92;273937;1266;22328;-84
2023/05/29 08:49:45;;;;;;;8.10;4.10;;;;;;;19.47;72.31;99281.70;272357;1266;23432;-86
2023/05/29 08:55:57;;;;;;;15.00;3.90;;;;;;;19.67;70.61;99277.09;274165;1268;22194;-85
2023/05/29 09:01:59;;;;;;;10.50;4.40;;;;;;;19.90;70.33;99272.23;274148;1265;23359;-87
2023/05/29 09:08:44;;;;;;;7.10;3.50;;;;;;;20.00;69.65;99272.39;274084;1253;22399;-86
2023/05/29 09:15:23;;;;;;;11.40;3.20;;;;;;;20.29;69.52;99268.41;273484;1266;22199;-85
2023/05/29 09:21:50;;;;;;;9.10;3.10;;;;;;;20.61;68.63;99259.29;273966;1266;23633;-84
2023/05/29 09:28:36;;;;;;;10.20;3.50;;;;;;;20.80;67.66;99259.05;273985;1266;23360;-84
2023/05/29 09:34:44;;;;;;;11.10;3.80;;;;;;;21.07;65.94;99257.77;273998;1266;22266;-84
2023/05/29 09:40:46;;;;;;;9.80;3.10;;;;;;;21.49;64.97;99253.90;273742;1266;25372;-85
2023/05/29 09:46:48;;;;;;;11.70;2.80;;;;;;;21.79;63.03;99250.98;270486;1267;25278;-84
2023/05/29 09:53:42;;;;;;;8.30;2.60;;;;;;;22.40;62.78;99250.64;272047;1256;22562;-85
2023/05/29 10:00:13;;;;;;;11.10;3.20;;;;;;;23.30;61.57;99246.48;273373;1267;142732;-84
2023/05/29 10:06:36;;;;;;;7.40;3.20;;;;;;;23.55;59.81;99247.46;274203;1266;22360;-85
2023/05/29 10:12:45;;;;;;;6.00;3.30;;;;;;;23.63;58.40;99248.77;274169;1266;22354;-85
2023/05/29 10:18:54;;;;;;;11.10;3.10;;;;;;;23.80;56.25;99247.00;274100;1266;23060;-85
2023/05/29 10:25:17;;;;;;;9.30;3.10;;;;;;;23.85;53.40;99243.36;274342;1266;22341;-85
2023/05/29 10:31:33;;;;;;;5.30;2.90;;;;;;;24.02;53.14;99241.60;274256;1266;22211;-84
2023/05/29 10:38:05;;;;;;;7.90;3.20;;;;;;;24.07;51.95;99244.84;274014;1260;22211;-84
2023/05/29 10:44:32;;;;;;;7.50;2.70;;;;;;;24.14;50.99;99235.29;273647;1266;22317;-85
2023/05/29 10:51:23;;;;;;;7.40;2.80;;;;;;;24.10;50.38;99221.95;274211;1266;23015;-85
2023/05/29 10:57:49;;;;;;;3.70;2.40;;;;;;;24.42;50.18;99223.36;273564;1266;22210;-85
2023/05/29 11:03:52;;;;;;;4.80;2.70;;;;;;;24.65;48.61;99226.82;274174;1266;22542;-85
2023/05/29 11:10:43;;;;;;;7.00;2.90;;;;;;;24.87;47.31;99226.21;274283;1258;22884;-85
2023/05/29 11:24:46;;;;;;;5.80;2.40;;;;;;;25.07;46.32;99222.67;271258;1256;22556;-85
2023/05/29 11:31:34;;;;;;;4.50;3.00;;;;;;;25.01;45.31;99220.10;271832;1266;22319;-85
2023/05/29 11:37:43;;;;;;;10.40;3.00;;;;;;;25.20;44.78;99220.02;272290;1264;22336;-85
2023/05/29 11:43:45;;;;;;;7.20;2.70;;;;;;;25.14;44.37;99214.22;274171;1256;23162;-84
2023/05/29 11:49:47;;;;;;;7.00;2.90;;;;;;;25.27;44.16;99211.88;274092;1266;22360;-85
2023/05/29 11:55:48;;;;;;;8.00;3.40;;;;;;;25.51;44.25;99208.41;274162;1263;22093;-85
2023/05/29 12:01:48;;;;;;;6.70;2.80;;;;;;;25.29;43.22;99204.96;273989;1266;22597;-85
2023/05/29 12:08:07;;;;;;;;;;;;;;;;;;;;;
2023/05/29 12:14:41;;;;;;;6.70;3.10;;;;;;;24.79;43.35;99188.64;271511;1266;22558;-84
2023/05/29 12:20:42;;;;;;;8.90;3.40;;;;;;;24.62;43.00;99180.53;273257;1266;22380;-85
2023/05/29 12:26:44;;;;;;;6.40;3.00;;;;;;;24.41;43.17;99181.27;274269;1250;22267;-84
2023/05/29 12:33:02;;;;;;;5.70;3.10;;;;;;;24.24;43.23;99178.21;274290;1266;22210;-84
2023/05/29 12:39:10;;;;;;;6.40;3.70;;;;;;;24.05;42.35;99179.26;274187;1257;22391;-85
2023/05/29 12:45:13;;;;;;;11.10;3.60;;;;;;;23.91;41.77;99176.46;272688;1266;22625;-85
2023/05/29 12:52:07;;;;;;;7.70;3.40;;;;;;;23.84;41.44;99171.06;271355;1259;22537;-85
2023/05/29 12:58:09;;;;;;;6.50;3.30;;;;;;;23.91;41.32;99163.35;274081;1264;22434;-84
2023/05/29 13:04:12;;;;;;;4.80;3.50;;;;;;;23.99;41.80;99163.35;272465;1264;22395;-84
2023/05/29 13:10:56;;;;;;;11.20;4.90;;;;;;;24.02;41.83;99161.89;271093;1259;22597;-84
2023/05/29 13:17:40;;;;;;;6.00;3.30;;;;;;;24.07;42.43;99158.40;273599;1264;22460;-85
2023/05/29 13:24:05;;;;;;;7.80;3.30;;;;;;;23.91;41.61;99151.73;274267;1266;22423;-85
2023/05/29 13:30:31;;;;;;;6.20;3.30;;;;;;;23.81;41.63;99148.48;274310;1256;23190;-85
2023/05/29 13:36:32;;;;;;;5.90;3.00;;;;;;;23.83;41.89;99140.83;274367;1257;22280;-85
2023/05/29 13:42:33;;;;;;;8.80;3.30;;;;;;;23.77;41.37;99131.15;274147;1266;23190;-86
2023/05/29 13:48:34;;;;;;;5.00;2.90;;;;;;;23.70;41.46;99121.42;272451;1266;22313;-85
2023/05/29 13:54:35;;;;;;;12.10;4.20;;;;;;;23.74;41.00;99122.00;273932;1266;22338;-85
2023/05/29 14:01:24;;;;;;;5.60;3.50;;;;;;;23.77;39.92;99116.96;272638;1253;22262;-87
2023/05/29 14:07:26;;;;;;;5.60;3.40;;;;;;;23.77;39.43;99118.39;274010;1266;22217;-85
2023/05/29 14:14:12;;;;;;;4.40;2.70;;;;;;;23.80;39.69;99115.77;273547;1256;24226;-85
2023/05/29 14:20:33;;;;;;;7.50;2.80;;;;;;;23.82;39.45;99115.36;273141;1266;22493;-84
2023/05/29 14:26:35;;;;;;;11.30;2.90;;;;;;;23.82;39.06;99111.56;271799;1265;23057;-85
2023/05/29 14:32:57;;;;;;;8.00;3.00;;;;;;;23.77;39.43;99110.22;272372;1253;22207;-85
2023/05/29 14:38:58;;;;;;;5.30;3.10;;;;;;;23.70;39.55;99106.77;274125;1266;22442;-86
2023/05/29 14:45:03;;;;;;;5.10;2.80;;;;;;;23.63;39.46;99102.48;274100;1262;22318;-86
2023/05/29 14:51:04;;;;;;;5.20;2.90;;;;;;;23.54;39.35;99096.80;272957;1256;22534;-85
2023/05/29 14:57:52;;;;;;;4.80;3.30;;;;;;;23.46;39.44;99098.39;271680;1266;22528;-84
2023/05/29 15:04:16;;;;;;;5.70;2.80;;;;;;;23.45;39.73;99094.23;271364;1266;22927;-84
2023/05/29 15:10:20;;;;;;;6.20;3.30;;;;;;;23.39;39.64;99092.45;271840;1266;22568;-84
2023/05/29 15:16:21;;;;;;;6.20;3.10;;;;;;;23.27;39.76;99094.73;273085;1253;22424;-86
2023/05/29 15:22:47;;;;;;;6.30;2.80;;;;;;;23.14;40.02;99094.46;273766;1266;22208;-85
2023/05/29 15:29:12;;;;;;;7.90;2.90;;;;;;;22.98;40.27;99088.70;273241;1266;22405;-85
2023/05/29 15:35:55;;;;;;;10.20;3.60;;;;;;;22.87;40.87;99091.13;274081;1266;22271;-86
2023/05/29 15:42:57;;;;;;;8.40;3.10;;;;;;;22.73;40.73;99089.48;273066;1270;22321;-84
2023/05/29 15:49:00;;;;;;;4.80;3.10;;;;;;;22.55;41.10;99091.41;272848;1269;22234;-85
2023/05/29 15:55:02;;;;;;;7.00;3.00;;;;;;;22.41;40.83;99099.32;273335;1270;22218;-86
2023/05/29 16:01:03;;;;;;;7.50;3.20;;;;;;;22.30;40.46;99101.42;273121;1258;22241;-86
2023/05/29 16:07:05;;;;;;;6.90;3.20;;;;;;;22.22;41.29;99096.63;273305;1269;23099;-86
2023/05/29 16:13:06;;;;;;;4.70;3.00;;;;;;;22.09;41.38;99094.92;273824;1266;22524;-86
2023/05/29 16:19:17;;;;;;;5.40;3.80;;;;;;;21.96;41.46;99093.52;272534;1266;22320;-86
2023/05/29 16:25:28;;;;;;;4.30;3.00;;;;;;;21.88;41.83;99092.75;273838;1261;23015;-84
2023/05/29 16:31:33;;;;;;;9.90;4.00;;;;;;;21.77;41.82;99099.79;273891;1266;22340;-85
2023/05/29 16:37:37;;;;;;;5.70;3.60;;;;;;;21.67;42.18;99102.92;273789;1267;22438;-85
2023/05/29 16:43:53;;;;;;;8.00;3.40;;;;;;;21.59;41.90;99101.70;273725;1256;22427;-85
2023/05/29 16:49:55;;;;;;;5.80;3.60;;;;;;;21.50;41.96;99098.70;272726;1266;22646;-85
2023/05/29 16:55:57;;;;;;;5.20;3.60;;;;;;;21.38;41.74;99097.88;272963;1266;22495;-85
2023/05/29 17:02:01;;;;;;;6.20;4.00;;;;;;;21.30;41.65;99101.01;273054;1266;25409;-85
2023/05/29 17:08:48;;;;;;;5.00;3.50;;;;;;;21.17;42.18;99107.04;273703;1266;22321;-86
2023/05/29 17:14:50;;;;;;;8.90;3.60;;;;;;;21.03;42.57;99107.61;274060;1266;23408;-86
2023/05/29 17:20:53;;;;;;;8.40;4.20;;;;;;;20.94;43.10;99101.98;273963;1267;23281;-85
2023/05/29 17:26:54;;;;;;;8.80;3.60;;;;;;;20.86;43.19;99102.46;273813;1259;22311;-85
2023/05/29 17:33:20;;;;;;;9.90;3.50;;;;;;;20.76;43.58;99101.37;274025;1256;22451;-85
2023/05/29 17:39:21;;;;;;;5.50;3.70;;;;;;;20.61;43.95;99103.95;274132;1266;23433;-85
2023/05/29 17:46:11;;;;;;;5.80;3.90;;;;;;;20.45;44.55;99109.07;274105;1266;22787;-86
2023/05/29 17:52:48;;;;;;;7.60;4.00;;;;;;;20.22;45.33;99108.58;272886;1265;22485;-85
2023/05/29 17:58:50;;;;;;;7.00;3.90;;;;;;;20.00;46.04;99110.27;272837;1272;22433;-85
2023/05/29 18:04:51;;;;;;;10.00;4.80;;;;;;;19.82;46.61;99107.39;273003;1263;23142;-85
2023/05/29 18:10:53;;;;;;;6.90;4.70;;;;;;;19.58;47.15;99106.88;272909;1272;22302;-86
2023/05/29 18:17:21;;;;;;;7.50;4.20;;;;;;;19.28;47.92;99108.80;272756;1272;22387;-86
2023/05/29 18:23:23;;;;;;;8.90;3.90;;;;;;;19.00;49.12;99115.25;272793;1272;22404;-85
2023/05/29 18:29:25;;;;;;;7.90;3.70;;;;;;;18.70;50.61;99122.36;273774;1268;22197;-85
2023/05/29 18:35:26;;;;;;;8.10;5.00;;;;;;;18.30;51.64;99128.16;274091;1266;22191;-85
2023/05/29 18:41:56;;;;;;;8.00;4.30;;;;;;;17.99;52.08;99132.73;273934;1270;22197;-85
2023/05/29 18:48:23;;;;;;;11.10;4.30;;;;;;;17.70;52.72;99138.41;273958;1266;22360;-85
2023/05/29 18:54:45;;;;;;;8.40;4.80;;;;;;;17.42;54.13;99143.79;274157;1266;22363;-85
2023/05/29 19:01:37;;;;;;;11.30;5.70;;;;;;;17.08;56.11;99150.62;274026;1266;22396;-85
2023/05/29 19:08:37;;;;;;;12.40;6.90;;;;;;;16.74;56.06;99161.48;266531;1267;10001426;-85
2023/05/29 19:14:41;;;;;;;14.70;9.30;;;;;;;16.49;57.27;99166.38;273083;1266;23299;-85
2023/05/29 19:20:42;;;;;;;18.80;9.00;;;;;;;16.21;57.88;99171.27;274066;1269;22361;-84
2023/05/29 19:27:39;;;;;;;20.40;8.20;;;;;;;15.97;58.53;99174.47;274116;1272;22346;-85
2023/05/29 19:34:12;;;;;;;;;;;;;;;15.74;59.80;99178.98;274184;1262;23209;-85
2023/05/29 19:41:01;;;;;;;13.90;7.30;;;;;;;15.42;60.81;99181.75;273670;1267;22218;-85
2023/05/29 19:47:28;;;;;;;14.00;8.40;;;;;;;15.14;61.37;99186.36;273915;1257;23546;-85
2023/05/29 20:00:50;;;;;;;13.20;7.90;;;;;;;14.66;62.68;99197.70;271712;1267;22528;-85
2023/05/29 20:06:55;;;;;;;14.30;7.90;;;;;;;14.41;63.95;99198.61;271183;1266;22557;-84
2023/05/29 20:13:27;;;;;;;14.30;7.00;;;;;;;14.22;65.96;99206.15;272156;1266;22356;-85
2023/05/29 20:19:57;;;;;;;15.10;7.80;;;;;;;14.05;66.70;99212.34;272128;1266;22396;-84
2023/05/29 20:26:07;;;;;;;13.70;7.60;;;;;;;13.81;66.73;99210.73;273204;1266;22642;-84
2023/05/29 20:32:08;;;;;;;15.60;7.80;;;;;;;13.62;67.21;99211.10;271026;1268;23737;-85
2023/05/29 20:38:09;;;;;;;17.60;9.30;;;;;;;13.35;66.98;99208.58;272265;1266;23541;-85
2023/05/29 20:44:35;;;;;;;21.30;10.70;;;;;;;13.14;68.47;99206.23;271204;1267;24971;-85
2023/05/29 20:51:00;;;;;;;26.00;12.00;;;;;;;12.99;70.30;99204.56;273097;1266;22266;-84
2023/05/29 20:57:03;;;;;;;25.90;13.10;;;;;;;12.90;71.06;99206.33;274216;1266;22213;-85
2023/05/29 21:03:04;;;;;;;24.70;12.40;;;;;;;12.80;71.68;99205.24;274150;1263;22231;-85
2023/05/29 21:09:05;;;;;;;24.80;13.50;;;;;;;12.69;71.83;99204.23;271337;1269;22573;-84
2023/05/29 21:15:32;;;;;;;29.20;14.40;;;;;;;12.60;72.37;99200.41;271488;1266;24012;-84
2023/05/29 21:21:33;;;;;;;24.70;9.70;;;;;;;12.47;72.66;99197.44;272848;1269;22261;-85
2023/05/29 21:27:38;;;;;;;38.20;16.40;;;;;;;12.35;73.93;99198.36;274063;1269;22392;-84
2023/05/29 21:33:41;;;;;;;27.00;14.10;;;;;;;12.23;74.53;99192.56;274215;1267;23542;-84
2023/05/29 21:39:43;;;;;;;23.50;13.20;;;;;;;12.12;75.74;99186.83;274044;1267;22212;-85
2023/05/29 21:45:45;;;;;;;31.70;14.10;;;;;;;12.00;76.29;99182.98;274325;1264;22444;-84
2023/05/29 21:51:54;;;;;;;26.10;13.90;;;;;;;11.82;75.96;99179.98;274124;1272;22324;-84
2023/05/29 21:57:55;;;;;;;24.60;12.80;;;;;;;11.62;77.00;99183.30;269077;1263;6445172;-84
2023/05/29 22:03:56;;;;;;;25.10;12.60;;;;;;;11.54;77.63;99185.00;270732;1269;23168;-84
2023/05/29 22:09:58;;;;;;;25.20;12.60;;;;;;;11.49;78.73;99185.04;271287;1266;22534;-84
2023/05/29 22:16:22;;;;;;;29.20;14.00;;;;;;;11.49;79.03;99186.84;272729;1273;22571;-84
2023/05/29 22:22:24;;;;;;;31.10;14.70;;;;;;;11.39;79.29;99180.86;272374;1272;22613;-84
2023/05/29 22:29:27;;;;;;;24.30;12.40;;;;;;;11.31;79.97;99181.72;270676;1263;22597;-84
2023/05/29 22:43:30;;;;;;;19.60;10.80;;;;;;;11.20;81.18;99179.23;273987;1273;22318;-84
2023/05/29 22:57:30;;;;;;;;;;;;;;;11.05;82.00;99174.67;273110;1266;25299;-84
2023/05/29 23:11:31;;;;;;;18.90;11.30;;;;;;;10.71;82.20;99173.30;271643;1257;23202;-85
2023/05/29 23:17:33;;;;;;;22.30;11.20;;;;;;;10.48;82.37;99180.82;271952;1257;22507;-84
2023/05/29 23:23:34;;;;;;;22.20;10.70;;;;;;;10.36;82.80;99181.27;272918;1257;22305;-85
2023/05/29 23:30:44;;;;;;;21.60;11.80;;;;;;;10.29;83.50;99177.46;274253;1272;23056;-84
2023/05/29 23:38:30;;;;;;;20.10;10.80;;;;;;;10.23;84.14;99176.52;273046;1261;23780;-84
2023/05/29 23:52:13;;;;;;;20.00;10.50;;;;;;;10.06;85.23;99182.10;270432;1267;22640;-84
2023/05/29 23:59:06;;;;;;;17.60;9.70;;;;;;;10.02;85.90;99181.33;272757;1270;22327;-84
